sensor_id;sensor_type;location;lat;lon;timestamp;pressure;altitude;pressure_sealevel;temperature;humidity
3524;BME280;1776;53.330;11.498;2022-12-18T00:01:58;54375.47;;;-147.39;75.28
3524;BME280;1776;53.330;11.498;2022-12-18T00:04:25;54373.41;;;-147.39;75.32
3524;BME280;1776;53.330;11.498;2022-12-18T00:06:51;54395.94;;;-147.39;75.37
3524;BME280;1776;53.330;11.498;2022-12-18T00:09:16;54383.66;;;-147.39;75.14
3524;BME280;1776;53.330;11.498;2022-12-18T00:11:41;54350.88;;;-147.39;75.25
3524;BME280;1776;53.330;11.498;2022-12-18T00:14:07;54361.13;;;-147.39;74.76
3524;BME280;1776;53.330;11.498;2022-12-18T00:16:33;54373.41;;;-147.39;74.78
3524;BME280;1776;53.330;11.498;2022-12-18T00:19:00;54385.72;;;-147.39;74.50
3524;BME280;1776;53.330;11.498;2022-12-18T00:21:27;54352.94;;;-147.39;74.72
3524;BME280;1776;53.330;11.498;2022-12-18T00:23:53;54408.25;;;-147.39;74.45
3524;BME280;1776;53.330;11.498;2022-12-18T00:26:24;54369.31;;;-147.39;74.72
3524;BME280;1776;53.330;11.498;2022-12-18T00:28:51;54383.66;;;-147.39;74.38
3524;BME280;1776;53.330;11.498;2022-12-18T00:31:20;54340.63;;;-147.39;74.43
3524;BME280;1776;53.330;11.498;2022-12-18T00:33:46;54424.63;;;-147.39;74.36
3524;BME280;1776;53.330;11.498;2022-12-18T00:36:14;54354.97;;;-147.39;74.31
3524;BME280;1776;53.330;11.498;2022-12-18T00:38:40;54406.19;;;-147.39;74.13
3524;BME280;1776;53.330;11.498;2022-12-18T00:41:06;54354.97;;;-147.39;74.37
3524;BME280;1776;53.330;11.498;2022-12-18T00:43:33;54373.41;;;-147.39;74.18
3524;BME280;1776;53.330;11.498;2022-12-18T00:45:58;54332.44;;;-147.39;73.99
3524;BME280;1776;53.330;11.498;2022-12-18T00:48:23;54375.47;;;-147.39;74.13
3524;BME280;1776;53.330;11.498;2022-12-18T00:50:50;54381.59;;;-147.39;73.86
3524;BME280;1776;53.330;11.498;2022-12-18T00:53:15;54391.84;;;-147.39;73.99
3524;BME280;1776;53.330;11.498;2022-12-18T00:55:41;54385.72;;;-147.39;73.77
3524;BME280;1776;53.330;11.498;2022-12-18T00:58:08;54316.03;;;-147.39;73.69
3524;BME280;1776;53.330;11.498;2022-12-18T01:00:34;54365.22;;;-147.39;73.69
3524;BME280;1776;53.330;11.498;2022-12-18T01:02:59;54400.06;;;-147.39;73.69
3524;BME280;1776;53.330;11.498;2022-12-18T01:05:25;54350.88;;;-147.39;73.75
3524;BME280;1776;53.330;11.498;2022-12-18T01:07:50;54377.50;;;-147.39;73.35
3524;BME280;1776;53.330;11.498;2022-12-18T01:10:16;54379.56;;;-147.39;73.10
3524;BME280;1776;53.330;11.498;2022-12-18T01:12:41;54371.38;;;-147.39;72.83
3524;BME280;1776;53.330;11.498;2022-12-18T01:15:08;54402.09;;;-147.39;72.59
3524;BME280;1776;53.330;11.498;2022-12-18T01:17:34;54400.06;;;-147.39;72.45
3524;BME280;1776;53.330;11.498;2022-12-18T01:19:59;54361.13;;;-147.39;72.18
3524;BME280;1776;53.330;11.498;2022-12-18T01:22:25;54391.84;;;-147.39;72.01
3524;BME280;1776;53.330;11.498;2022-12-18T01:24:50;54391.84;;;-147.39;72.10
3524;BME280;1776;53.330;11.498;2022-12-18T01:27:15;54391.84;;;-147.39;72.24
3524;BME280;1776;53.330;11.498;2022-12-18T01:29:41;54379.56;;;-147.39;72.37
3524;BME280;1776;53.330;11.498;2022-12-18T01:32:06;54379.56;;;-147.39;72.35
3524;BME280;1776;53.330;11.498;2022-12-18T01:34:31;54369.31;;;-147.39;72.62
3524;BME280;1776;53.330;11.498;2022-12-18T01:36:57;54383.66;;;-147.39;72.64
3524;BME280;1776;53.330;11.498;2022-12-18T01:39:22;54391.84;;;-147.39;72.61
3524;BME280;1776;53.330;11.498;2022-12-18T01:41:48;54373.41;;;-147.39;72.58
3524;BME280;1776;53.330;11.498;2022-12-18T01:44:58;54389.81;;;-147.39;72.05
3524;BME280;1776;53.330;11.498;2022-12-18T01:49:55;54326.28;;;-147.39;71.95
3524;BME280;1776;53.330;11.498;2022-12-18T01:52:22;54402.09;;;-147.39;71.74
3524;BME280;1776;53.330;11.498;2022-12-18T01:54:50;54359.06;;;-147.39;71.06
3524;BME280;1776;53.330;11.498;2022-12-18T01:57:16;54385.72;;;-147.39;71.31
3524;BME280;1776;53.330;11.498;2022-12-18T01:59:42;54373.41;;;-147.39;71.24
3524;BME280;1776;53.330;11.498;2022-12-18T02:02:08;54354.97;;;-147.39;71.29
3524;BME280;1776;53.330;11.498;2022-12-18T02:04:33;54379.56;;;-147.39;71.39
3524;BME280;1776;53.330;11.498;2022-12-18T02:07:05;54377.50;;;-147.39;71.60
3524;BME280;1776;53.330;11.498;2022-12-18T02:09:51;54385.72;;;-147.39;71.24
3524;BME280;1776;53.330;11.498;2022-12-18T02:12:21;54383.66;;;-147.39;70.82
3524;BME280;1776;53.330;11.498;2022-12-18T02:15:05;54357.03;;;-147.39;70.91
3524;BME280;1776;53.330;11.498;2022-12-18T02:20:12;54371.38;;;-147.39;70.54
3524;BME280;1776;53.330;11.498;2022-12-18T02:22:51;54357.03;;;-147.39;70.52
3524;BME280;1776;53.330;11.498;2022-12-18T02:28:09;54371.38;;;-147.39;69.79
3524;BME280;1776;53.330;11.498;2022-12-18T02:30:37;54393.91;;;-147.39;69.77
3524;BME280;1776;53.330;11.498;2022-12-18T02:33:06;54371.38;;;-147.39;69.50
3524;BME280;1776;53.330;11.498;2022-12-18T02:35:32;54400.06;;;-147.39;69.56
3524;BME280;1776;53.330;11.498;2022-12-18T02:37:59;54402.09;;;-147.39;69.36
3524;BME280;1776;53.330;11.498;2022-12-18T02:40:26;54402.09;;;-147.39;68.89
3524;BME280;1776;53.330;11.498;2022-12-18T02:42:52;54363.16;;;-147.39;69.02
3524;BME280;1776;53.330;11.498;2022-12-18T02:45:18;54402.09;;;-147.39;68.55
3524;BME280;1776;53.330;11.498;2022-12-18T02:47:47;54369.31;;;-147.39;68.68
3524;BME280;1776;53.330;11.498;2022-12-18T03:00:48;54391.84;;;-147.39;68.91
3524;BME280;1776;53.330;11.498;2022-12-18T03:03:30;54375.47;;;-147.39;69.24
3524;BME280;1776;53.330;11.498;2022-12-18T03:06:05;54383.66;;;-147.39;69.39
3524;BME280;1776;53.330;11.498;2022-12-18T03:08:37;54367.28;;;-147.39;69.75
3524;BME280;1776;53.330;11.498;2022-12-18T03:11:12;54377.50;;;-147.39;69.71
3524;BME280;1776;53.330;11.498;2022-12-18T03:13:51;54375.47;;;-147.39;69.92
3524;BME280;1776;53.330;11.498;2022-12-18T03:16:24;54379.56;;;-147.39;70.22
3524;BME280;1776;53.330;11.498;2022-12-18T03:19:01;54416.44;;;-147.39;69.74
3524;BME280;1776;53.330;11.498;2022-12-18T03:21:33;54389.81;;;-147.39;69.71
3524;BME280;1776;53.330;11.498;2022-12-18T03:24:01;54365.22;;;-147.39;69.78
3524;BME280;1776;53.330;11.498;2022-12-18T03:26:29;54391.84;;;-147.39;70.28
3524;BME280;1776;53.330;11.498;2022-12-18T03:28:59;54398.00;;;-147.39;70.12
3524;BME280;1776;53.330;11.498;2022-12-18T03:31:29;54346.78;;;-147.39;70.24
3524;BME280;1776;53.330;11.498;2022-12-18T03:33:59;54391.84;;;-147.39;70.35
3524;BME280;1776;53.330;11.498;2022-12-18T03:36:26;54385.72;;;-147.39;70.20
3524;BME280;1776;53.330;11.498;2022-12-18T03:38:51;54398.00;;;-147.39;70.37
3524;BME280;1776;53.330;11.498;2022-12-18T03:41:33;54354.97;;;-147.39;70.12
3524;BME280;1776;53.330;11.498;2022-12-18T03:44:12;54383.66;;;-147.39;70.35
3524;BME280;1776;53.330;11.498;2022-12-18T03:47:27;54367.28;;;-147.39;70.49
3524;BME280;1776;53.330;11.498;2022-12-18T03:49:46;54383.66;;;-147.39;70.20
3524;BME280;1776;53.330;11.498;2022-12-18T03:52:18;54383.66;;;-147.39;70.24
3524;BME280;1776;53.330;11.498;2022-12-18T03:54:46;54434.88;;;-147.39;70.03
3524;BME280;1776;53.330;11.498;2022-12-18T03:57:21;54369.31;;;-147.39;70.02
3524;BME280;1776;53.330;11.498;2022-12-18T03:59:50;54375.47;;;-147.39;69.74
3524;BME280;1776;53.330;11.498;2022-12-18T04:02:17;54387.75;;;-147.39;69.43
3524;BME280;1776;53.330;11.498;2022-12-18T04:04:44;54361.13;;;-147.39;69.36
3524;BME280;1776;53.330;11.498;2022-12-18T04:07:12;54389.81;;;-147.39;68.83
3524;BME280;1776;53.330;11.498;2022-12-18T04:09:38;54375.47;;;-147.39;68.56
3524;BME280;1776;53.330;11.498;2022-12-18T04:12:06;54412.34;;;-147.39;68.49
3524;BME280;1776;53.330;11.498;2022-12-18T04:14:31;54365.22;;;-147.39;68.47
3524;BME280;1776;53.330;11.498;2022-12-18T04:17:01;54350.88;;;-147.39;68.26
3524;BME280;1776;53.330;11.498;2022-12-18T04:19:26;54400.06;;;-147.39;68.30
3524;BME280;1776;53.330;11.498;2022-12-18T04:21:51;54361.13;;;-147.39;68.12
3524;BME280;1776;53.330;11.498;2022-12-18T04:24:16;54393.91;;;-147.39;68.04
3524;BME280;1776;53.330;11.498;2022-12-18T04:26:42;54430.78;;;-147.39;68.28
3524;BME280;1776;53.330;11.498;2022-12-18T04:29:07;54365.22;;;-147.39;68.47
3524;BME280;1776;53.330;11.498;2022-12-18T04:31:32;54373.41;;;-147.39;68.05
3524;BME280;1776;53.330;11.498;2022-12-18T04:33:58;54369.31;;;-147.39;68.33
3524;BME280;1776;53.330;11.498;2022-12-18T04:36:26;54369.31;;;-147.39;68.28
3524;BME280;1776;53.330;11.498;2022-12-18T04:38:51;54369.31;;;-147.39;67.86
3524;BME280;1776;53.330;11.498;2022-12-18T04:41:16;54359.06;;;-147.39;67.56
3524;BME280;1776;53.330;11.498;2022-12-18T04:43:41;54465.63;;;-147.39;67.56
3524;BME280;1776;53.330;11.498;2022-12-18T04:46:07;54387.75;;;-147.39;67.34
3524;BME280;1776;53.330;11.498;2022-12-18T04:48:33;54418.50;;;-147.39;67.17
3524;BME280;1776;53.330;11.498;2022-12-18T04:50:59;54387.75;;;-147.39;67.02
3524;BME280;1776;53.330;11.498;2022-12-18T04:53:24;54412.34;;;-147.39;67.12
3524;BME280;1776;53.330;11.498;2022-12-18T04:55:49;54373.41;;;-147.39;66.98
3524;BME280;1776;53.330;11.498;2022-12-18T04:58:15;54322.19;;;-147.39;67.25
3524;BME280;1776;53.330;11.498;2022-12-18T05:00:40;54377.50;;;-147.39;67.81
3524;BME280;1776;53.330;11.498;2022-12-18T05:03:06;54404.16;;;-147.39;68.03
3524;BME280;1776;53.330;11.498;2022-12-18T05:05:31;54410.28;;;-147.39;67.81
3524;BME280;1776;53.330;11.498;2022-12-18T05:07:56;54371.38;;;-147.39;68.05
3524;BME280;1776;53.330;11.498;2022-12-18T05:10:22;54389.81;;;-147.39;68.12
3524;BME280;1776;53.330;11.498;2022-12-18T05:12:47;54406.19;;;-147.39;68.05
3524;BME280;1776;53.330;11.498;2022-12-18T05:15:31;54404.16;;;-147.39;68.07
3524;BME280;1776;53.330;11.498;2022-12-18T05:17:58;54428.75;;;-147.39;68.22
3524;BME280;1776;53.330;11.498;2022-12-18T05:20:23;54395.94;;;-147.39;68.33
3524;BME280;1776;53.330;11.498;2022-12-18T05:22:50;54469.72;;;-147.39;68.55
3524;BME280;1776;53.330;11.498;2022-12-18T05:25:15;54379.56;;;-147.39;68.53
3524;BME280;1776;53.330;11.498;2022-12-18T05:27:40;54371.38;;;-147.39;68.20
3524;BME280;1776;53.330;11.498;2022-12-18T05:30:06;54352.94;;;-147.39;68.26
3524;BME280;1776;53.330;11.498;2022-12-18T05:32:32;54377.50;;;-147.39;68.42
3524;BME280;1776;53.330;11.498;2022-12-18T05:34:57;54398.00;;;-147.39;68.46
3524;BME280;1776;53.330;11.498;2022-12-18T05:37:22;54412.34;;;-147.39;68.31
3524;BME280;1776;53.330;11.498;2022-12-18T05:39:48;54393.91;;;-147.39;68.21
3524;BME280;1776;53.330;11.498;2022-12-18T05:42:13;54387.75;;;-147.39;68.42
3524;BME280;1776;53.330;11.498;2022-12-18T05:44:38;54408.25;;;-147.39;67.58
3524;BME280;1776;53.330;11.498;2022-12-18T05:47:03;54404.16;;;-147.39;67.81
3524;BME280;1776;53.330;11.498;2022-12-18T05:49:29;54402.09;;;-147.39;67.35
3524;BME280;1776;53.330;11.498;2022-12-18T05:51:54;54365.22;;;-147.39;67.12
3524;BME280;1776;53.330;11.498;2022-12-18T05:54:19;54369.31;;;-147.39;67.25
3524;BME280;1776;53.330;11.498;2022-12-18T05:56:45;54398.00;;;-147.39;67.75
3524;BME280;1776;53.330;11.498;2022-12-18T05:59:10;54402.09;;;-147.39;67.72
3524;BME280;1776;53.330;11.498;2022-12-18T06:01:35;54400.06;;;-147.39;67.61
3524;BME280;1776;53.330;11.498;2022-12-18T06:04:00;54410.28;;;-147.39;67.85
3524;BME280;1776;53.330;11.498;2022-12-18T06:06:27;54395.94;;;-147.39;68.04
3524;BME280;1776;53.330;11.498;2022-12-18T06:08:53;54385.72;;;-147.39;67.76
3524;BME280;1776;53.330;11.498;2022-12-18T06:11:21;54383.66;;;-147.39;67.42
3524;BME280;1776;53.330;11.498;2022-12-18T06:13:57;54371.38;;;-147.39;67.63
3524;BME280;1776;53.330;11.498;2022-12-18T06:16:23;54379.56;;;-147.39;67.68
3524;BME280;1776;53.330;11.498;2022-12-18T06:18:48;54395.94;;;-147.39;67.61
3524;BME280;1776;53.330;11.498;2022-12-18T06:21:13;54395.94;;;-147.39;68.06
3524;BME280;1776;53.330;11.498;2022-12-18T06:23:39;54391.84;;;-147.39;67.61
3524;BME280;1776;53.330;11.498;2022-12-18T06:26:13;54404.16;;;-147.39;67.72
3524;BME280;1776;53.330;11.498;2022-12-18T06:28:39;54361.13;;;-147.39;67.87
3524;BME280;1776;53.330;11.498;2022-12-18T06:31:05;54395.94;;;-147.39;67.65
3524;BME280;1776;53.330;11.498;2022-12-18T06:33:31;54422.59;;;-147.39;67.94
3524;BME280;1776;53.330;11.498;2022-12-18T06:36:04;54361.13;;;-147.39;67.88
3524;BME280;1776;53.330;11.498;2022-12-18T06:38:32;54381.59;;;-147.39;68.34
3524;BME280;1776;53.330;11.498;2022-12-18T06:40:58;54404.16;;;-147.39;68.32
3524;BME280;1776;53.330;11.498;2022-12-18T06:43:23;54367.28;;;-147.39;68.80
3524;BME280;1776;53.330;11.498;2022-12-18T06:45:49;54400.06;;;-147.39;68.62
3524;BME280;1776;53.330;11.498;2022-12-18T06:48:20;54383.66;;;-147.39;68.55
3524;BME280;1776;53.330;11.498;2022-12-18T06:50:46;54391.84;;;-147.39;68.56
3524;BME280;1776;53.330;11.498;2022-12-18T06:53:11;54406.19;;;-147.39;69.06
3524;BME280;1776;53.330;11.498;2022-12-18T06:55:36;54410.28;;;-147.39;68.88
3524;BME280;1776;53.330;11.498;2022-12-18T06:58:02;54402.09;;;-147.39;68.83
3524;BME280;1776;53.330;11.498;2022-12-18T07:00:27;54412.34;;;-147.39;69.18
3524;BME280;1776;53.330;11.498;2022-12-18T07:02:52;54381.59;;;-147.39;68.72
3524;BME280;1776;53.330;11.498;2022-12-18T07:05:17;54402.09;;;-147.39;69.14
3524;BME280;1776;53.330;11.498;2022-12-18T07:07:43;54412.34;;;-147.39;69.69
3524;BME280;1776;53.330;11.498;2022-12-18T07:10:08;54412.34;;;-147.39;69.46
3524;BME280;1776;53.330;11.498;2022-12-18T07:12:34;54383.66;;;-147.39;69.40
3524;BME280;1776;53.330;11.498;2022-12-18T07:14:59;54434.88;;;-147.39;69.68
3524;BME280;1776;53.330;11.498;2022-12-18T07:17:24;54395.94;;;-147.39;69.49
3524;BME280;1776;53.330;11.498;2022-12-18T07:19:50;54350.88;;;-147.39;70.08
3524;BME280;1776;53.330;11.498;2022-12-18T07:22:15;54412.34;;;-147.39;69.69
3524;BME280;1776;53.330;11.498;2022-12-18T07:24:40;54430.78;;;-147.39;69.99
3524;BME280;1776;53.330;11.498;2022-12-18T07:27:05;54393.91;;;-147.39;69.69
3524;BME280;1776;53.330;11.498;2022-12-18T07:29:31;54346.78;;;-147.39;69.23
3524;BME280;1776;53.330;11.498;2022-12-18T07:31:56;54398.00;;;-147.39;68.98
3524;BME280;1776;53.330;11.498;2022-12-18T07:34:21;54400.06;;;-147.39;69.14
3524;BME280;1776;53.330;11.498;2022-12-18T07:36:46;54406.19;;;-147.39;69.30
3524;BME280;1776;53.330;11.498;2022-12-18T07:39:12;54441.03;;;-147.39;69.52
3524;BME280;1776;53.330;11.498;2022-12-18T07:41:37;54420.53;;;-147.39;69.29
3524;BME280;1776;53.330;11.498;2022-12-18T07:44:03;54428.75;;;-147.39;69.28
3524;BME280;1776;53.330;11.498;2022-12-18T07:46:28;54412.34;;;-147.39;69.14
3524;BME280;1776;53.330;11.498;2022-12-18T07:48:53;54426.69;;;-147.39;68.89
3524;BME280;1776;53.330;11.498;2022-12-18T07:51:18;54416.44;;;-147.39;68.89
3524;BME280;1776;53.330;11.498;2022-12-18T07:53:44;54381.59;;;-147.39;68.71
3524;BME280;1776;53.330;11.498;2022-12-18T07:56:11;54410.28;;;-147.39;68.64
3524;BME280;1776;53.330;11.498;2022-12-18T07:58:36;54373.41;;;-147.39;68.91
3524;BME280;1776;53.330;11.498;2022-12-18T08:01:05;54391.84;;;-147.39;69.06
3524;BME280;1776;53.330;11.498;2022-12-18T08:03:31;54387.75;;;-147.39;69.29
3524;BME280;1776;53.330;11.498;2022-12-18T08:06:04;54410.28;;;-147.39;69.49
3524;BME280;1776;53.330;11.498;2022-12-18T08:08:31;54387.75;;;-147.39;69.54
3524;BME280;1776;53.330;11.498;2022-12-18T08:10:57;54408.25;;;-147.39;69.69
3524;BME280;1776;53.330;11.498;2022-12-18T08:13:23;54383.66;;;-147.39;69.59
3524;BME280;1776;53.330;11.498;2022-12-18T08:16:02;54406.19;;;-147.39;69.23
3524;BME280;1776;53.330;11.498;2022-12-18T08:18:28;54414.41;;;-147.39;69.47
3524;BME280;1776;53.330;11.498;2022-12-18T08:20:54;54391.84;;;-147.39;69.38
3524;BME280;1776;53.330;11.498;2022-12-18T08:23:20;54385.72;;;-147.39;69.58
3524;BME280;1776;53.330;11.498;2022-12-18T08:25:45;54410.28;;;-147.39;69.51
3524;BME280;1776;53.330;11.498;2022-12-18T08:28:10;54389.81;;;-147.39;69.57
3524;BME280;1776;53.330;11.498;2022-12-18T08:30:36;54404.16;;;-147.39;69.17
3524;BME280;1776;53.330;11.498;2022-12-18T08:33:01;54393.91;;;-147.39;69.19
3524;BME280;1776;53.330;11.498;2022-12-18T08:35:27;54391.84;;;-147.39;69.33
3524;BME280;1776;53.330;11.498;2022-12-18T08:37:52;54410.28;;;-147.39;69.18
3524;BME280;1776;53.330;11.498;2022-12-18T08:40:18;54395.94;;;-147.39;68.91
3524;BME280;1776;53.330;11.498;2022-12-18T08:42:43;54420.53;;;-147.39;68.96
3524;BME280;1776;53.330;11.498;2022-12-18T08:45:27;54445.13;;;-147.39;68.93
3524;BME280;1776;53.330;11.498;2022-12-18T08:47:52;54422.59;;;-147.39;69.13
3524;BME280;1776;53.330;11.498;2022-12-18T08:50:17;54389.81;;;-147.39;69.00
3524;BME280;1776;53.330;11.498;2022-12-18T08:52:43;54408.25;;;-147.39;69.36
3524;BME280;1776;53.330;11.498;2022-12-18T08:55:09;54383.66;;;-147.39;69.04
3524;BME280;1776;53.330;11.498;2022-12-18T08:57:35;54406.19;;;-147.39;69.06
3524;BME280;1776;53.330;11.498;2022-12-18T09:00:00;54389.81;;;-147.39;68.96
3524;BME280;1776;53.330;11.498;2022-12-18T09:02:25;54383.66;;;-147.39;69.25
3524;BME280;1776;53.330;11.498;2022-12-18T09:04:50;54418.50;;;-147.39;69.10
3524;BME280;1776;53.330;11.498;2022-12-18T09:07:16;54416.44;;;-147.39;69.27
3524;BME280;1776;53.330;11.498;2022-12-18T09:09:41;54375.47;;;-147.39;69.31
3524;BME280;1776;53.330;11.498;2022-12-18T09:12:06;54391.84;;;-147.39;69.23
3524;BME280;1776;53.330;11.498;2022-12-18T09:14:32;54385.72;;;-147.39;68.96
3524;BME280;1776;53.330;11.498;2022-12-18T09:16:57;54381.59;;;-147.39;68.98
3524;BME280;1776;53.330;11.498;2022-12-18T09:19:22;54414.41;;;-147.39;69.61
3524;BME280;1776;53.330;11.498;2022-12-18T09:21:47;54385.72;;;-147.39;69.50
3524;BME280;1776;53.330;11.498;2022-12-18T09:24:14;54404.16;;;-147.39;69.09
3524;BME280;1776;53.330;11.498;2022-12-18T09:26:39;54387.75;;;-147.39;67.96
3524;BME280;1776;53.330;11.498;2022-12-18T09:29:04;54377.50;;;-147.39;65.58
3524;BME280;1776;53.330;11.498;2022-12-18T09:31:30;54297.59;;;-147.39;62.20
3524;BME280;1776;53.330;11.498;2022-12-18T09:33:55;54334.47;;;-147.39;60.84
3524;BME280;1776;53.330;11.498;2022-12-18T09:36:21;54371.38;;;-147.39;59.67
3524;BME280;1776;53.330;11.498;2022-12-18T09:38:46;54324.25;;;-147.39;58.82
3524;BME280;1776;53.330;11.498;2022-12-18T09:43:57;54361.13;;;-147.39;58.89
3524;BME280;1776;53.330;11.498;2022-12-18T09:46:29;54422.59;;;-147.39;59.39
3524;BME280;1776;53.330;11.498;2022-12-18T09:48:59;54350.88;;;-147.39;59.65
3524;BME280;1776;53.330;11.498;2022-12-18T09:51:33;54336.53;;;-147.39;60.16
3524;BME280;1776;53.330;11.498;2022-12-18T09:54:04;54395.94;;;-147.39;60.54
3524;BME280;1776;53.330;11.498;2022-12-18T09:56:35;54328.34;;;-147.39;60.62
3524;BME280;1776;53.330;11.498;2022-12-18T09:59:04;54352.94;;;-147.39;62.32
3524;BME280;1776;53.330;11.498;2022-12-18T10:01:31;54354.97;;;-147.39;62.44
3524;BME280;1776;53.330;11.498;2022-12-18T10:03:56;54361.13;;;-147.39;62.96
3524;BME280;1776;53.330;11.498;2022-12-18T10:06:44;54373.41;;;-147.39;63.67
3524;BME280;1776;53.330;11.498;2022-12-18T10:17:45;54391.84;;;-147.39;64.83
3524;BME280;1776;53.330;11.498;2022-12-18T10:20:24;54332.44;;;-147.39;64.92
3524;BME280;1776;53.330;11.498;2022-12-18T10:25:31;54342.69;;;-147.39;65.17
3524;BME280;1776;53.330;11.498;2022-12-18T10:28:09;54369.31;;;-147.39;64.96
3524;BME280;1776;53.330;11.498;2022-12-18T10:30:38;54354.97;;;-147.39;64.88
3524;BME280;1776;53.330;11.498;2022-12-18T10:33:04;54371.38;;;-147.39;64.75
3524;BME280;1776;53.330;11.498;2022-12-18T10:35:29;54338.59;;;-147.39;64.66
3524;BME280;1776;53.330;11.498;2022-12-18T10:41:06;54352.94;;;-147.39;64.56
3524;BME280;1776;53.330;11.498;2022-12-18T10:43:38;54352.94;;;-147.39;64.30
3524;BME280;1776;53.330;11.498;2022-12-18T10:46:12;54357.03;;;-147.39;64.70
3524;BME280;1776;53.330;11.498;2022-12-18T10:48:54;54346.78;;;-147.39;65.30
3524;BME280;1776;53.330;11.498;2022-12-18T10:51:29;54318.09;;;-147.39;65.91
3524;BME280;1776;53.330;11.498;2022-12-18T10:54:03;54340.63;;;-147.39;65.99
3524;BME280;1776;53.330;11.498;2022-12-18T10:56:31;54334.47;;;-147.39;65.68
3524;BME280;1776;53.330;11.498;2022-12-18T10:59:03;54330.38;;;-147.39;65.81
3524;BME280;1776;53.330;11.498;2022-12-18T11:01:53;54363.16;;;-147.39;66.06
3524;BME280;1776;53.330;11.498;2022-12-18T11:07:05;54375.47;;;-147.39;66.25
3524;BME280;1776;53.330;11.498;2022-12-18T11:09:32;54311.94;;;-147.39;66.79
3524;BME280;1776;53.330;11.498;2022-12-18T11:12:03;54346.78;;;-147.39;66.42
3524;BME280;1776;53.330;11.498;2022-12-18T11:14:33;54416.44;;;-147.39;66.25
3524;BME280;1776;53.330;11.498;2022-12-18T11:17:00;54357.03;;;-147.39;66.47
3524;BME280;1776;53.330;11.498;2022-12-18T11:19:33;54373.41;;;-147.39;66.44
3524;BME280;1776;53.330;11.498;2022-12-18T11:22:00;54371.38;;;-147.39;66.65
3524;BME280;1776;53.330;11.498;2022-12-18T11:24:30;54354.97;;;-147.39;67.22
3524;BME280;1776;53.330;11.498;2022-12-18T11:26:58;54330.38;;;-147.39;67.42
3524;BME280;1776;53.330;11.498;2022-12-18T11:29:33;54369.31;;;-147.39;67.37
3524;BME280;1776;53.330;11.498;2022-12-18T11:32:23;54336.53;;;-147.39;67.90
3524;BME280;1776;53.330;11.498;2022-12-18T11:34:52;54326.28;;;-147.39;68.04
3524;BME280;1776;53.330;11.498;2022-12-18T11:37:21;54377.50;;;-147.39;68.26
3524;BME280;1776;53.330;11.498;2022-12-18T11:39:51;54357.03;;;-147.39;68.51
3524;BME280;1776;53.330;11.498;2022-12-18T11:42:41;54352.94;;;-147.39;69.00
3524;BME280;1776;53.330;11.498;2022-12-18T11:47:44;54307.84;;;-147.39;69.29
3524;BME280;1776;53.330;11.498;2022-12-18T11:50:16;54361.13;;;-147.39;69.34
3524;BME280;1776;53.330;11.498;2022-12-18T11:52:42;54365.22;;;-147.39;69.14
3524;BME280;1776;53.330;11.498;2022-12-18T11:55:12;54354.97;;;-147.39;69.02
3524;BME280;1776;53.330;11.498;2022-12-18T12:00:28;54371.38;;;-147.39;68.84
3524;BME280;1776;53.330;11.498;2022-12-18T12:03:16;54314.00;;;-147.39;68.49
3524;BME280;1776;53.330;11.498;2022-12-18T12:08:41;54318.09;;;-147.39;68.49
3524;BME280;1776;53.330;11.498;2022-12-18T12:14:25;54346.78;;;-147.39;68.97
3524;BME280;1776;53.330;11.498;2022-12-18T12:19:48;54332.44;;;-147.39;68.67
3524;BME280;1776;53.330;11.498;2022-12-18T12:27:50;54334.47;;;-147.39;69.04
3524;BME280;1776;53.330;11.498;2022-12-18T12:30:35;54369.31;;;-147.39;69.58
3524;BME280;1776;53.330;11.498;2022-12-18T12:36:11;54338.59;;;-147.39;69.25
3524;BME280;1776;53.330;11.498;2022-12-18T12:38:55;54346.78;;;-147.39;69.31
3524;BME280;1776;53.330;11.498;2022-12-18T12:41:25;54350.88;;;-147.39;69.66
3524;BME280;1776;53.330;11.498;2022-12-18T12:44:20;54340.63;;;-147.39;69.89
3524;BME280;1776;53.330;11.498;2022-12-18T12:46:47;54389.81;;;-147.39;69.54
3524;BME280;1776;53.330;11.498;2022-12-18T12:49:17;54367.28;;;-147.39;69.93
3524;BME280;1776;53.330;11.498;2022-12-18T12:51:46;54344.72;;;-147.39;69.65
3524;BME280;1776;53.330;11.498;2022-12-18T12:54:18;54332.44;;;-147.39;69.61
3524;BME280;1776;53.330;11.498;2022-12-18T12:56:57;54375.47;;;-147.39;69.65
3524;BME280;1776;53.330;11.498;2022-12-18T13:02:59;54365.22;;;-147.39;69.74
3524;BME280;1776;53.330;11.498;2022-12-18T13:05:34;54318.09;;;-147.39;69.89
3524;BME280;1776;53.330;11.498;2022-12-18T13:08:06;54344.72;;;-147.39;69.90
3524;BME280;1776;53.330;11.498;2022-12-18T13:10:34;54342.69;;;-147.39;70.33
3524;BME280;1776;53.330;11.498;2022-12-18T13:13:07;54359.06;;;-147.39;70.54
3524;BME280;1776;53.330;11.498;2022-12-18T13:15:48;54340.63;;;-147.39;70.58
3524;BME280;1776;53.330;11.498;2022-12-18T13:18:21;54359.06;;;-147.39;70.61
3524;BME280;1776;53.330;11.498;2022-12-18T13:34:24;54338.59;;;-147.39;70.30
3524;BME280;1776;53.330;11.498;2022-12-18T13:36:51;54340.63;;;-147.39;70.94
3524;BME280;1776;53.330;11.498;2022-12-18T13:41:42;54342.69;;;-147.39;70.89
3524;BME280;1776;53.330;11.498;2022-12-18T13:44:30;54369.31;;;-147.39;70.92
3524;BME280;1776;53.330;11.498;2022-12-18T13:46:57;54316.03;;;-147.39;70.95
3524;BME280;1776;53.330;11.498;2022-12-18T13:49:26;54332.44;;;-147.39;70.85
3524;BME280;1776;53.330;11.498;2022-12-18T13:51:56;54365.22;;;-147.39;71.00
3524;BME280;1776;53.330;11.498;2022-12-18T13:54:39;54346.78;;;-147.39;71.25
3524;BME280;1776;53.330;11.498;2022-12-18T13:57:26;54348.81;;;-147.39;71.48
3524;BME280;1776;53.330;11.498;2022-12-18T13:59:51;54379.56;;;-147.39;71.40
3524;BME280;1776;53.330;11.498;2022-12-18T14:02:21;54342.69;;;-147.39;71.10
3524;BME280;1776;53.330;11.498;2022-12-18T14:04:48;54336.53;;;-147.39;71.30
3524;BME280;1776;53.330;11.498;2022-12-18T14:07:15;54379.56;;;-147.39;71.42
3524;BME280;1776;53.330;11.498;2022-12-18T14:09:55;54330.38;;;-147.39;71.54
3524;BME280;1776;53.330;11.498;2022-12-18T14:12:31;54336.53;;;-147.39;71.50
3524;BME280;1776;53.330;11.498;2022-12-18T14:17:52;54361.13;;;-147.39;71.44
3524;BME280;1776;53.330;11.498;2022-12-18T14:20:18;54348.81;;;-147.39;71.63
3524;BME280;1776;53.330;11.498;2022-12-18T14:22:45;54357.03;;;-147.39;71.56